sensor_id;sensor_type;location;lat;lon;timestamp;temperature;humidity
59208;DHT22;44977;53.132;6.408;2022-10-16T00:02:59;12.30;99.90
59208;DHT22;44977;53.132;6.408;2022-10-16T00:08:00;12.30;99.90
59208;DHT22;44977;53.132;6.408;2022-10-16T00:13:01;12.30;99.90
59208;DHT22;44977;53.132;6.408;2022-10-16T00:18:03;12.30;99.90
59208;DHT22;44977;53.132;6.408;2022-10-16T00:23:04;12.30;99.90
59208;DHT22;44977;53.132;6.408;2022-10-16T00:28:05;12.30;99.90
59208;DHT22;44977;53.132;6.408;2022-10-16T00:33:06;12.30;99.90
59208;DHT22;44977;53.132;6.408;2022-10-16T00:38:06;12.30;99.90
59208;DHT22;44977;53.132;6.408;2022-10-16T00:48:33;12.30;99.90
59208;DHT22;44977;53.132;6.408;2022-10-16T00:53:35;12.30;99.90
59208;DHT22;44977;53.132;6.408;2022-10-16T00:58:35;12.30;99.90
59208;DHT22;44977;53.132;6.408;2022-10-16T01:03:37;12.40;99.90
59208;DHT22;44977;53.132;6.408;2022-10-16T01:13:45;12.40;99.90
59208;DHT22;44977;53.132;6.408;2022-10-16T01:18:59;12.40;99.90
59208;DHT22;44977;53.132;6.408;2022-10-16T01:34:59;12.50;99.90
59208;DHT22;44977;53.132;6.408;2022-10-16T01:40:05;12.50;99.90
59208;DHT22;44977;53.132;6.408;2022-10-16T01:45:07;12.50;99.90
59208;DHT22;44977;53.132;6.408;2022-10-16T01:50:09;12.50;99.90
59208;DHT22;44977;53.132;6.408;2022-10-16T01:55:12;12.50;99.90
59208;DHT22;44977;53.132;6.408;2022-10-16T02:00:17;12.40;99.90
59208;DHT22;44977;53.132;6.408;2022-10-16T02:05:36;12.40;99.90
59208;DHT22;44977;53.132;6.408;2022-10-16T02:10:39;12.50;99.90
59208;DHT22;44977;53.132;6.408;2022-10-16T02:15:40;12.50;99.90
59208;DHT22;44977;53.132;6.408;2022-10-16T02:21:10;12.60;99.90
59208;DHT22;44977;53.132;6.408;2022-10-16T02:26:15;12.60;99.90
59208;DHT22;44977;53.132;6.408;2022-10-16T02:31:23;12.50;99.90
59208;DHT22;44977;53.132;6.408;2022-10-16T02:36:26;12.60;99.90
59208;DHT22;44977;53.132;6.408;2022-10-16T02:41:27;12.60;99.90
59208;DHT22;44977;53.132;6.408;2022-10-16T02:46:28;12.60;99.90
59208;DHT22;44977;53.132;6.408;2022-10-16T02:51:29;12.60;99.90
59208;DHT22;44977;53.132;6.408;2022-10-16T02:56:30;12.60;99.90
59208;DHT22;44977;53.132;6.408;2022-10-16T03:01:31;12.70;99.90
59208;DHT22;44977;53.132;6.408;2022-10-16T03:06:31;12.70;99.90
59208;DHT22;44977;53.132;6.408;2022-10-16T03:11:32;12.70;99.90
59208;DHT22;44977;53.132;6.408;2022-10-16T03:16:33;12.70;99.90
59208;DHT22;44977;53.132;6.408;2022-10-16T03:21:33;12.80;99.90
59208;DHT22;44977;53.132;6.408;2022-10-16T03:26:34;12.80;99.90
59208;DHT22;44977;53.132;6.408;2022-10-16T03:31:35;12.80;99.90
59208;DHT22;44977;53.132;6.408;2022-10-16T03:36:35;12.80;99.90
59208;DHT22;44977;53.132;6.408;2022-10-16T03:41:36;12.70;99.90
59208;DHT22;44977;53.132;6.408;2022-10-16T03:46:37;12.70;99.90
59208;DHT22;44977;53.132;6.408;2022-10-16T03:51:38;12.70;99.90
59208;DHT22;44977;53.132;6.408;2022-10-16T03:56:38;12.70;99.90
59208;DHT22;44977;53.132;6.408;2022-10-16T04:01:40;12.70;99.90
59208;DHT22;44977;53.132;6.408;2022-10-16T04:06:41;12.70;99.90
59208;DHT22;44977;53.132;6.408;2022-10-16T04:11:41;12.60;99.90
59208;DHT22;44977;53.132;6.408;2022-10-16T04:16:42;12.60;99.90
59208;DHT22;44977;53.132;6.408;2022-10-16T04:21:43;12.60;99.90
59208;DHT22;44977;53.132;6.408;2022-10-16T04:26:43;12.50;99.90
59208;DHT22;44977;53.132;6.408;2022-10-16T04:31:44;12.50;99.90
59208;DHT22;44977;53.132;6.408;2022-10-16T04:36:47;12.40;99.90
59208;DHT22;44977;53.132;6.408;2022-10-16T04:41:49;12.40;99.90
59208;DHT22;44977;53.132;6.408;2022-10-16T04:46:51;12.50;99.90
59208;DHT22;44977;53.132;6.408;2022-10-16T04:51:51;12.50;99.90
59208;DHT22;44977;53.132;6.408;2022-10-16T04:56:52;12.50;99.90
59208;DHT22;44977;53.132;6.408;2022-10-16T05:01:53;12.60;99.90
59208;DHT22;44977;53.132;6.408;2022-10-16T05:06:53;12.50;99.90
59208;DHT22;44977;53.132;6.408;2022-10-16T05:11:54;12.50;99.90
59208;DHT22;44977;53.132;6.408;2022-10-16T05:16:55;12.50;99.90
59208;DHT22;44977;53.132;6.408;2022-10-16T05:21:55;12.60;99.90
59208;DHT22;44977;53.132;6.408;2022-10-16T05:26:56;12.50;99.90
59208;DHT22;44977;53.132;6.408;2022-10-16T05:31:57;12.50;99.90
59208;DHT22;44977;53.132;6.408;2022-10-16T05:36:58;12.50;99.90
59208;DHT22;44977;53.132;6.408;2022-10-16T05:41:58;12.50;99.90
59208;DHT22;44977;53.132;6.408;2022-10-16T05:46:59;12.60;99.90
59208;DHT22;44977;53.132;6.408;2022-10-16T05:52:00;12.60;99.90
59208;DHT22;44977;53.132;6.408;2022-10-16T05:57:00;12.60;99.90
59208;DHT22;44977;53.132;6.408;2022-10-16T06:02:02;12.60;99.90
59208;DHT22;44977;53.132;6.408;2022-10-16T06:07:03;12.60;99.90
59208;DHT22;44977;53.132;6.408;2022-10-16T06:12:03;12.60;99.90
59208;DHT22;44977;53.132;6.408;2022-10-16T06:17:04;12.60;99.90
59208;DHT22;44977;53.132;6.408;2022-10-16T06:22:05;12.60;99.90
59208;DHT22;44977;53.132;6.408;2022-10-16T06:27:06;12.60;99.90
59208;DHT22;44977;53.132;6.408;2022-10-16T06:32:07;12.70;99.90
59208;DHT22;44977;53.132;6.408;2022-10-16T06:37:07;12.70;99.90
59208;DHT22;44977;53.132;6.408;2022-10-16T06:42:08;12.70;99.90
59208;DHT22;44977;53.132;6.408;2022-10-16T06:47:09;12.70;99.90
59208;DHT22;44977;53.132;6.408;2022-10-16T06:52:09;12.80;99.90
59208;DHT22;44977;53.132;6.408;2022-10-16T06:57:10;12.80;99.90
59208;DHT22;44977;53.132;6.408;2022-10-16T07:02:11;12.90;99.90
59208;DHT22;44977;53.132;6.408;2022-10-16T07:07:12;12.90;99.90
59208;DHT22;44977;53.132;6.408;2022-10-16T07:12:12;12.90;99.90
59208;DHT22;44977;53.132;6.408;2022-10-16T07:17:13;12.90;99.90
59208;DHT22;44977;53.132;6.408;2022-10-16T07:22:14;13.00;99.90
59208;DHT22;44977;53.132;6.408;2022-10-16T07:27:14;13.00;99.90
59208;DHT22;44977;53.132;6.408;2022-10-16T07:32:16;13.00;99.90
59208;DHT22;44977;53.132;6.408;2022-10-16T07:37:17;13.00;99.90
59208;DHT22;44977;53.132;6.408;2022-10-16T07:42:18;13.00;99.90
59208;DHT22;44977;53.132;6.408;2022-10-16T07:47:20;13.00;99.90
59208;DHT22;44977;53.132;6.408;2022-10-16T07:52:21;13.00;99.90
59208;DHT22;44977;53.132;6.408;2022-10-16T07:57:21;13.00;99.90
59208;DHT22;44977;53.132;6.408;2022-10-16T08:02:22;13.10;99.90
59208;DHT22;44977;53.132;6.408;2022-10-16T08:07:23;13.20;99.90
59208;DHT22;44977;53.132;6.408;2022-10-16T08:12:23;13.30;99.90
59208;DHT22;44977;53.132;6.408;2022-10-16T08:17:24;13.40;99.90
59208;DHT22;44977;53.132;6.408;2022-10-16T08:22:25;13.40;99.90
59208;DHT22;44977;53.132;6.408;2022-10-16T08:27:31;13.50;99.90
59208;DHT22;44977;53.132;6.408;2022-10-16T08:32:32;13.80;99.90
59208;DHT22;44977;53.132;6.408;2022-10-16T08:37:33;14.00;99.90
59208;DHT22;44977;53.132;6.408;2022-10-16T08:52:44;14.70;99.90
59208;DHT22;44977;53.132;6.408;2022-10-16T08:57:45;14.70;99.90
59208;DHT22;44977;53.132;6.408;2022-10-16T09:02:56;14.90;99.90
59208;DHT22;44977;53.132;6.408;2022-10-16T09:13:26;15.20;99.90
59208;DHT22;44977;53.132;6.408;2022-10-16T09:18:54;15.30;99.90
59208;DHT22;44977;53.132;6.408;2022-10-16T09:24:12;15.50;99.90
59208;DHT22;44977;53.132;6.408;2022-10-16T09:29:16;15.70;99.90
59208;DHT22;44977;53.132;6.408;2022-10-16T09:34:35;15.70;99.90
59208;DHT22;44977;53.132;6.408;2022-10-16T09:39:48;15.70;99.90
59208;DHT22;44977;53.132;6.408;2022-10-16T09:44:52;15.60;99.90
59208;DHT22;44977;53.132;6.408;2022-10-16T09:50:03;15.60;99.90
59208;DHT22;44977;53.132;6.408;2022-10-16T09:55:15;15.60;99.90
59208;DHT22;44977;53.132;6.408;2022-10-16T10:00:17;15.70;99.90
59208;DHT22;44977;53.132;6.408;2022-10-16T10:05:22;15.60;99.90
59208;DHT22;44977;53.132;6.408;2022-10-16T10:10:27;15.70;99.90
59208;DHT22;44977;53.132;6.408;2022-10-16T10:15:34;15.60;99.90
59208;DHT22;44977;53.132;6.408;2022-10-16T10:20:37;15.80;99.90
59208;DHT22;44977;53.132;6.408;2022-10-16T10:26:02;16.10;99.90
59208;DHT22;44977;53.132;6.408;2022-10-16T10:46:35;16.30;99.90
59208;DHT22;44977;53.132;6.408;2022-10-16T10:51:51;16.50;99.90
59208;DHT22;44977;53.132;6.408;2022-10-16T10:57:10;16.70;99.90
59208;DHT22;44977;53.132;6.408;2022-10-16T11:07:28;16.90;99.90
59208;DHT22;44977;53.132;6.408;2022-10-16T11:12:38;16.90;99.90
59208;DHT22;44977;53.132;6.408;2022-10-16T11:23:00;16.70;99.90
59208;DHT22;44977;53.132;6.408;2022-10-16T11:28:23;16.80;99.90
59208;DHT22;44977;53.132;6.408;2022-10-16T11:49:11;17.30;99.90
59208;DHT22;44977;53.132;6.408;2022-10-16T11:54:38;17.20;99.90
59208;DHT22;44977;53.132;6.408;2022-10-16T12:10:36;17.30;99.90
59208;DHT22;44977;53.132;6.408;2022-10-16T12:15:37;17.20;99.90
59208;DHT22;44977;53.132;6.408;2022-10-16T12:20:38;17.10;99.90
59208;DHT22;44977;53.132;6.408;2022-10-16T12:25:57;17.10;99.90
59208;DHT22;44977;53.132;6.408;2022-10-16T12:31:05;17.10;99.90
59208;DHT22;44977;53.132;6.408;2022-10-16T12:36:30;16.90;99.90
59208;DHT22;44977;53.132;6.408;2022-10-16T12:41:34;16.70;99.90
59208;DHT22;44977;53.132;6.408;2022-10-16T12:46:39;16.50;99.90
59208;DHT22;44977;53.132;6.408;2022-10-16T12:51:41;16.40;99.90
59208;DHT22;44977;53.132;6.408;2022-10-16T13:18:22;16.10;99.90
59208;DHT22;44977;53.132;6.408;2022-10-16T13:28:35;16.00;99.90
59208;DHT22;44977;53.132;6.408;2022-10-16T13:33:40;16.00;99.90
59208;DHT22;44977;53.132;6.408;2022-10-16T13:38:42;16.00;99.90
59208;DHT22;44977;53.132;6.408;2022-10-16T13:43:50;16.00;99.90
59208;DHT22;44977;53.132;6.408;2022-10-16T13:49:00;16.10;99.90
59208;DHT22;44977;53.132;6.408;2022-10-16T13:54:00;16.10;99.90
59208;DHT22;44977;53.132;6.408;2022-10-16T13:59:06;16.20;99.90
59208;DHT22;44977;53.132;6.408;2022-10-16T14:04:10;16.20;99.90
59208;DHT22;44977;53.132;6.408;2022-10-16T14:09:26;16.30;99.90
59208;DHT22;44977;53.132;6.408;2022-10-16T14:14:38;16.30;99.90
59208;DHT22;44977;53.132;6.408;2022-10-16T14:19:40;16.30;99.90
59208;DHT22;44977;53.132;6.408;2022-10-16T14:24:45;16.30;99.90
59208;DHT22;44977;53.132;6.408;2022-10-16T14:29:46;16.30;99.90
59208;DHT22;44977;53.132;6.408;2022-10-16T14:34:53;16.20;99.90
59208;DHT22;44977;53.132;6.408;2022-10-16T14:39:55;16.20;99.90
59208;DHT22;44977;53.132;6.408;2022-10-16T14:44:56;16.10;99.90
59208;DHT22;44977;53.132;6.408;2022-10-16T14:49:57;16.10;99.90
59208;DHT22;44977;53.132;6.408;2022-10-16T14:55:00;16.00;99.90
59208;DHT22;44977;53.132;6.408;2022-10-16T15:00:00;15.90;99.90
59208;DHT22;44977;53.132;6.408;2022-10-16T15:05:12;15.80;99.90
59208;DHT22;44977;53.132;6.408;2022-10-16T15:10:14;15.70;99.90
59208;DHT22;44977;53.132;6.408;2022-10-16T15:15:24;15.70;99.90
59208;DHT22;44977;53.132;6.408;2022-10-16T15:20:34;15.60;99.90
59208;DHT22;44977;53.132;6.408;2022-10-16T15:25:40;15.50;99.90
59208;DHT22;44977;53.132;6.408;2022-10-16T15:30:42;15.50;99.90
59208;DHT22;44977;53.132;6.408;2022-10-16T15:35:49;15.50;99.90
59208;DHT22;44977;53.132;6.408;2022-10-16T15:40:51;15.40;99.90
59208;DHT22;44977;53.132;6.408;2022-10-16T15:51:06;15.20;99.90
59208;DHT22;44977;53.132;6.408;2022-10-16T15:56:09;15.20;99.90
59208;DHT22;44977;53.132;6.408;2022-10-16T16:01:11;15.10;99.90
59208;DHT22;44977;53.132;6.408;2022-10-16T16:06:13;15.10;99.90
59208;DHT22;44977;53.132;6.408;2022-10-16T16:11:16;14.90;99.90
59208;DHT22;44977;53.132;6.408;2022-10-16T16:16:17;14.90;99.90
59208;DHT22;44977;53.132;6.408;2022-10-16T16:21:20;14.80;99.90
59208;DHT22;44977;53.132;6.408;2022-10-16T16:26:28;14.60;99.90
59208;DHT22;44977;53.132;6.408;2022-10-16T16:31:36;14.50;99.90
59208;DHT22;44977;53.132;6.408;2022-10-16T16:36:37;14.40;99.90
59208;DHT22;44977;53.132;6.408;2022-10-16T16:41:37;14.30;99.90
59208;DHT22;44977;53.132;6.408;2022-10-16T16:46:38;14.20;99.90
59208;DHT22;44977;53.132;6.408;2022-10-16T16:51:43;14.10;99.90
59208;DHT22;44977;53.132;6.408;2022-10-16T16:56:43;14.00;99.90
59208;DHT22;44977;53.132;6.408;2022-10-16T17:01:44;13.90;99.90
59208;DHT22;44977;53.132;6.408;2022-10-16T17:06:46;13.80;99.90
59208;DHT22;44977;53.132;6.408;2022-10-16T17:11:46;13.70;99.90
59208;DHT22;44977;53.132;6.408;2022-10-16T17:16:48;13.50;99.90
59208;DHT22;44977;53.132;6.408;2022-10-16T17:21:50;13.40;99.90
59208;DHT22;44977;53.132;6.408;2022-10-16T17:26:51;13.30;99.90
59208;DHT22;44977;53.132;6.408;2022-10-16T17:31:51;13.20;99.90
59208;DHT22;44977;53.132;6.408;2022-10-16T17:36:52;13.20;99.90
59208;DHT22;44977;53.132;6.408;2022-10-16T17:41:53;13.10;99.90
59208;DHT22;44977;53.132;6.408;2022-10-16T17:46:55;13.00;99.90
59208;DHT22;44977;53.132;6.408;2022-10-16T17:51:55;12.90;99.90
59208;DHT22;44977;53.132;6.408;2022-10-16T17:56:56;12.90;99.90
59208;DHT22;44977;53.132;6.408;2022-10-16T18:01:57;12.80;99.90
59208;DHT22;44977;53.132;6.408;2022-10-16T18:06:57;12.80;99.90
59208;DHT22;44977;53.132;6.408;2022-10-16T18:11:59;12.70;99.90
59208;DHT22;44977;53.132;6.408;2022-10-16T18:17:01;12.70;99.90
59208;DHT22;44977;53.132;6.408;2022-10-16T18:22:01;12.60;99.90
59208;DHT22;44977;53.132;6.408;2022-10-16T18:27:02;12.60;99.90
59208;DHT22;44977;53.132;6.408;2022-10-16T18:32:03;12.50;99.90
59208;DHT22;44977;53.132;6.408;2022-10-16T18:37:04;12.50;99.90
59208;DHT22;44977;53.132;6.408;2022-10-16T18:42:05;12.40;99.90
59208;DHT22;44977;53.132;6.408;2022-10-16T18:47:05;12.40;99.90
59208;DHT22;44977;53.132;6.408;2022-10-16T18:52:06;12.40;99.90
59208;DHT22;44977;53.132;6.408;2022-10-16T18:57:07;12.40;99.90
59208;DHT22;44977;53.132;6.408;2022-10-16T19:02:11;12.40;99.90
59208;DHT22;44977;53.132;6.408;2022-10-16T19:07:13;12.30;99.90
59208;DHT22;44977;53.132;6.408;2022-10-16T19:12:15;12.30;99.90
59208;DHT22;44977;53.132;6.408;2022-10-16T19:17:15;12.30;99.90
59208;DHT22;44977;53.132;6.408;2022-10-16T19:22:16;12.20;99.90
59208;DHT22;44977;53.132;6.408;2022-10-16T19:27:27;12.20;99.90
59208;DHT22;44977;53.132;6.408;2022-10-16T19:32:27;12.20;99.90
59208;DHT22;44977;53.132;6.408;2022-10-16T19:37:28;12.20;99.90
59208;DHT22;44977;53.132;6.408;2022-10-16T19:42:29;12.20;99.90
59208;DHT22;44977;53.132;6.408;2022-10-16T19:47:30;12.20;99.90
59208;DHT22;44977;53.132;6.408;2022-10-16T19:52:32;12.10;99.90
59208;DHT22;44977;53.132;6.408;2022-10-16T19:57:36;12.20;99.90
59208;DHT22;44977;53.132;6.408;2022-10-16T20:02:37;12.10;99.90
59208;DHT22;44977;53.132;6.408;2022-10-16T20:07:37;12.10;99.90
59208;DHT22;44977;53.132;6.408;2022-10-16T20:12:38;12.10;99.90
59208;DHT22;44977;53.132;6.408;2022-10-16T20:17:39;12.10;99.90
59208;DHT22;44977;53.132;6.408;2022-10-16T20:22:40;12.10;99.90
59208;DHT22;44977;53.132;6.408;2022-10-16T20:27:41;12.10;99.90
59208;DHT22;44977;53.132;6.408;2022-10-16T20:32:42;12.10;99.90
59208;DHT22;44977;53.132;6.408;2022-10-16T20:37:44;12.00;99.90
59208;DHT22;44977;53.132;6.408;2022-10-16T20:42:48;12.10;99.90
59208;DHT22;44977;53.132;6.408;2022-10-16T20:47:48;12.10;99.90
59208;DHT22;44977;53.132;6.408;2022-10-16T20:52:49;12.10;99.90
59208;DHT22;44977;53.132;6.408;2022-10-16T20:57:50;12.10;99.90
59208;DHT22;44977;53.132;6.408;2022-10-16T21:02:51;12.10;99.90
59208;DHT22;44977;53.132;6.408;2022-10-16T21:07:52;12.10;99.90
59208;DHT22;44977;53.132;6.408;2022-10-16T21:12:53;12.20;99.90
59208;DHT22;44977;53.132;6.408;2022-10-16T21:17:54;12.20;99.90
59208;DHT22;44977;53.132;6.408;2022-10-16T21:22:55;12.20;99.90
59208;DHT22;44977;53.132;6.408;2022-10-16T21:27:55;12.20;99.90
59208;DHT22;44977;53.132;6.408;2022-10-16T21:32:56;12.20;99.90
59208;DHT22;44977;53.132;6.408;2022-10-16T21:37:57;12.20;99.90
59208;DHT22;44977;53.132;6.408;2022-10-16T21:42:58;12.20;99.90
59208;DHT22;44977;53.132;6.408;2022-10-16T21:47:58;12.30;99.90
59208;DHT22;44977;53.132;6.408;2022-10-16T21:52:59;12.30;99.90
59208;DHT22;44977;53.132;6.408;2022-10-16T21:58:00;12.30;99.90
59208;DHT22;44977;53.132;6.408;2022-10-16T22:03:00;12.30;99.90
59208;DHT22;44977;53.132;6.408;2022-10-16T22:08:01;12.30;99.90
59208;DHT22;44977;53.132;6.408;2022-10-16T22:13:02;12.30;99.90
59208;DHT22;44977;53.132;6.408;2022-10-16T22:18:03;12.30;99.90
59208;DHT22;44977;53.132;6.408;2022-10-16T22:23:03;12.30;99.90
59208;DHT22;44977;53.132;6.408;2022-10-16T22:28:04;12.40;99.90
59208;DHT22;44977;53.132;6.408;2022-10-16T22:33:05;12.40;99.90
59208;DHT22;44977;53.132;6.408;2022-10-16T22:38:06;12.40;99.90
59208;DHT22;44977;53.132;6.408;2022-10-16T22:43:07;12.40;99.90
59208;DHT22;44977;53.132;6.408;2022-10-16T22:48:08;12.40;99.90
59208;DHT22;44977;53.132;6.408;2022-10-16T22:53:08;12.40;99.90
59208;DHT22;44977;53.132;6.408;2022-10-16T22:58:09;12.50;99.90
59208;DHT22;44977;53.132;6.408;2022-10-16T23:03:10;12.50;99.90
59208;DHT22;44977;53.132;6.408;2022-10-16T23:08:11;12.50;99.90
59208;DHT22;44977;53.132;6.408;2022-10-16T23:13:12;12.50;99.90
59208;DHT22;44977;53.132;6.408;2022-10-16T23:18:13;12.50;99.90
59208;DHT22;44977;53.132;6.408;2022-10-16T23:23:14;12.50;99.90
59208;DHT22;44977;53.132;6.408;2022-10-16T23:28:14;12.50;99.90
59208;DHT22;44977;53.132;6.408;2022-10-16T23:33:15;12.50;99.90
59208;DHT22;44977;53.132;6.408;2022-10-16T23:38:16;12.50;99.90
59208;DHT22;44977;53.132;6.408;2022-10-16T23:43:16;12.50;99.90
59208;DHT22;44977;53.132;6.408;2022-10-16T23:48:17;12.50;99.90
59208;DHT22;44977;53.132;6.408;2022-10-16T23:53:18;12.40;99.90
59208;DHT22;44977;53.132;6.408;2022-10-16T23:58:18;12.40;99.90
